Flight Track Log - Related Links

Times and Time Zones

All times are in EST time to prevent confusion due to time zone crossing. See the RPA3380 flight status page for this flight to view local times or setup timezone preferences in your user account.

Time Position Orientation Groundspeed Altitude Reporting Facility
EST Latitude Longitude Course Direction KTS MPH feet Rate Location/Type
Wed 10:01:31 PM 39.8667 -75.2667 57° Northeast 150 173 900  Level Philadelphia TRACON
Wed 10:02:31 PM 39.8333 -75.3167 229° Southwest 211 243 2,500 2,300 Climbing Philadelphia TRACON
Wed 10:03:31 PM 39.7833 -75.3500 207° Southwest 228 262 5,500 2,250 Climbing Philadelphia TRACON
Wed 10:04:00 PM 40.1877 -74.8597 57° Northeast  Level Estimated
Wed 10:04:31 PM 39.7667 -75.2667 105° East 286 329 7,000  Level Philadelphia TRACON
Wed 10:05:00 PM 40.2663 -74.7639 51° Northeast  Level Estimated
Wed 10:06:00 PM 40.3449 -74.6678 57° Northeast  Level Estimated
Wed 10:06:48 PM 39.7828 -75.0200 85° East 296 341 12,000  Level New York Center
Wed 10:07:48 PM 39.7844 -74.9122 89° East 320 368 12,000 800 Level New York Center
Wed 10:08:48 PM 39.8342 -74.8042 59° Northeast 320 368 13,600 1,650 Climbing New York Center
Wed 10:09:48 PM 39.9039 -74.7136 45° Northeast 335 386 15,300 1,800 Climbing New York Center
Wed 10:10:48 PM 39.9778 -74.6228 43° Northeast 350 403 17,200 1,650 Climbing New York Center
Wed 10:11:48 PM 40.0539 -74.5267 44° Northeast 365 420 18,600 1,650 Climbing New York Center
Wed 10:12:48 PM 40.1339 -74.4281 43° Northeast 376 433 20,500 1,900 Climbing New York Center
Wed 10:13:48 PM 40.2142 -74.3261 44° Northeast 387 445 22,400 1,808 Climbing New York Center
Wed 10:15:24 PM 40.3514 -74.1589 43° Northeast 421 484 25,200 1,665 Climbing Boston Center
Wed 10:16:23 PM 40.4378 -74.0494 44° Northeast 428 493 26,700 1,289 Climbing Boston Center
Wed 10:17:25 PM 40.5294 -73.9406 42° Northeast 438 504 27,800 1,122 Climbing Boston Center
Wed 10:18:26 PM 40.6203 -73.8236 44° Northeast 451 519 29,000 600 Climbing Boston Center
Wed 10:19:25 PM 40.7103 -73.7078 44° Northeast 452 520 29,000  Level Boston Center
Wed 10:20:26 PM 40.8017 -73.5903 44° Northeast 453 521 29,000  Level Boston Center
Wed 10:21:28 PM 40.8939 -73.4719 44° Northeast 457 526 29,000  Level Boston Center
Wed 10:22:28 PM 40.9853 -73.3533 44° Northeast 458 527 29,000  Level Boston Center
Wed 10:23:29 PM 41.0858 -73.2242 44° Northeast 458 527 29,000  Level Boston Center
Wed 10:24:28 PM 41.1731 -73.1011 47° Northeast 459 528 29,000  Level Boston Center
Wed 10:25:30 PM 41.2419 -72.9553 58° Northeast 467 537 29,000  Level Boston Center
Wed 10:26:31 PM 41.3044 -72.8181 59° Northeast 466 536 29,000  Level Boston Center
Wed 10:27:31 PM 41.3725 -72.6733 58° Northeast 464 534 29,000  Level Boston Center
Wed 10:28:30 PM 41.4397 -72.5278 58° Northeast 463 533 29,000  Level Boston Center
Wed 10:29:30 PM 41.5078 -72.3822 58° Northeast 463 533 29,000  Level Boston Center
Wed 10:30:33 PM 41.5758 -72.2331 59° Northeast 459 528 29,000  Level Boston Center
Wed 10:31:32 PM 41.6414 -72.0903 58° Northeast 459 528 29,000  Level Boston Center
Wed 10:32:32 PM 41.7067 -71.9447 59° Northeast 459 528 29,000  Level Boston Center
Wed 10:33:34 PM 41.7736 -71.7986 58° Northeast 459 528 29,000  Level Boston Center
Wed 10:34:34 PM 41.8386 -71.6519 59° Northeast 459 528 29,000  Level Boston Center
Wed 10:35:36 PM 41.8956 -71.5000 63° Northeast 459 528 29,000  Level Boston Center
Wed 10:36:35 PM 41.9489 -71.3461 65° Northeast 459 528 29,000  Level Boston Center
Wed 10:37:37 PM 42.0378 -71.1831 54° Northeast 456 525 29,000  Level Boston Center
Wed 10:38:36 PM 42.1419 -71.0894 34° Northeast 450 518 29,000  Level Boston Center
Wed 10:39:38 PM 42.2494 -71.0008 31° Northeast 450 518 29,000  Level Boston Center
Wed 10:40:38 PM 42.3567 -70.9103 32° Northeast 451 519 29,000 -850 Level Boston Center
Wed 10:41:38 PM 42.4578 -70.8233 32° Northeast 451 519 27,300 -1,983 Descending Boston Center
Wed 10:42:39 PM 42.5603 -70.7389 31° Northeast 436 502 25,000 -2,479 Descending Boston Center
Wed 10:43:39 PM 42.6631 -70.6525 32° Northeast 415 478 22,300 -2,410 Descending Boston Center
Wed 10:44:41 PM 42.7611 -70.5867 26° Northeast 396 456 20,100 -2,213 Descending Boston Center
Wed 10:45:41 PM 42.8597 -70.5267 24° Northeast 388 447 17,800 -2,150 Descending Boston Center
Wed 10:46:41 PM 42.9497 -70.4692 25° Northeast 364 419 15,800 -2,000 Descending Boston Center
Wed 10:47:41 PM 43.0361 -70.4114 26° Northeast 351 404 13,800 -1,887 Descending Boston Center
Wed 10:48:45 PM 43.1142 -70.3419 33° Northeast 337 388 11,900 -1,707 Descending Boston Center
Wed 10:49:44 PM 43.1911 -70.2750 32° Northeast 315 362 10,300 -1,373 Descending Boston Center
Wed 10:50:43 PM 43.2617 -70.2136 32° Northeast 282 325 9,200 -1,041 Descending Boston Center
Wed 10:51:45 PM 43.3275 -70.1614 30° Northeast 277 319 8,200 -1,171 Descending Boston Center
Wed 10:52:46 PM 43.4022 -70.1511 North 271 312 6,800 -1,377 Descending Boston Center
Wed 10:53:47 PM 43.4714 -70.1425 North 252 290 5,400 -1,636 Descending Boston Center
Wed 10:54:47 PM 43.5356 -70.1547 352° North 237 273 3,500 -1,537 Descending Boston Center
Wed 10:55:48 PM 43.5919 -70.1783 343° North 212 244 2,300 -885 Descending Boston Center
Wed 10:56:49 PM 43.6331 -70.2014 338° Northwest 165 190 1,700 -750 Descending Boston Center
Wed 10:57:48 PM 43.6417 -70.2497 284° West 132 152 800 -807 Descending Boston Center
Wed 10:58:48 PM 43.6447 -70.3003 275° West 125 144 100 -700 Descending Boston Center

Login

Don't have an account? Register now (free) for customized features, flight alerts, and more!